Terminal Aerodrome Forecast
Issued by NWS

Home | Current Version | Previous Version | Text Only | Print | Product List | Glossary On
Versions: 1 2 3 4 5 6 7 8 9 10 11 12 13 14 15 16 17 18 19 20 21
000
FTUS44 KLZK 271700 RRA
TAFHRO
TAF
KHRO 271751Z 2718/2818 16004KT P6SM FEW030
     FM272200 VRB04KT P6SM VCTS BKN040CB
     FM280300 14004KT P6SM SCT250
     FM281000 14002KT P6SM FEW250=

USA.gov is the U.S. government's official web portal to all federal, state and local government web resources and services.